sensor_id;sensor_type;location;lat;lon;timestamp;P1;durP1;ratioP1;P2;durP2;ratioP2
11731;SDS011;5922;53.734;10.258;2023-02-19T00:00:27;6.67;;;5.30;;
11731;SDS011;5922;53.734;10.258;2023-02-19T00:02:59;8.60;;;5.60;;
11731;SDS011;5922;53.734;10.258;2023-02-19T00:05:29;7.97;;;6.17;;
11731;SDS011;5922;53.734;10.258;2023-02-19T00:07:58;8.13;;;6.27;;
11731;SDS011;5922;53.734;10.258;2023-02-19T00:10:26;7.70;;;5.70;;
11731;SDS011;5922;53.734;10.258;2023-02-19T00:12:53;8.57;;;6.37;;
11731;SDS011;5922;53.734;10.258;2023-02-19T00:15:21;9.43;;;6.90;;
11731;SDS011;5922;53.734;10.258;2023-02-19T00:17:51;9.33;;;7.00;;
11731;SDS011;5922;53.734;10.258;2023-02-19T00:20:19;7.80;;;6.87;;
11731;SDS011;5922;53.734;10.258;2023-02-19T00:22:53;9.17;;;7.63;;
11731;SDS011;5922;53.734;10.258;2023-02-19T00:25:25;8.60;;;7.33;;
11731;SDS011;5922;53.734;10.258;2023-02-19T00:27:52;9.67;;;7.20;;
11731;SDS011;5922;53.734;10.258;2023-02-19T00:30:20;9.47;;;7.90;;
11731;SDS011;5922;53.734;10.258;2023-02-19T00:32:48;12.40;;;7.97;;
11731;SDS011;5922;53.734;10.258;2023-02-19T00:35:16;10.97;;;7.77;;
11731;SDS011;5922;53.734;10.258;2023-02-19T00:37:43;13.37;;;8.37;;
11731;SDS011;5922;53.734;10.258;2023-02-19T00:40:12;9.80;;;7.83;;
11731;SDS011;5922;53.734;10.258;2023-02-19T00:42:42;11.03;;;7.40;;
11731;SDS011;5922;53.734;10.258;2023-02-19T00:45:10;8.80;;;7.40;;
11731;SDS011;5922;53.734;10.258;2023-02-19T00:47:37;13.13;;;7.07;;
11731;SDS011;5922;53.734;10.258;2023-02-19T00:50:07;10.97;;;7.60;;
11731;SDS011;5922;53.734;10.258;2023-02-19T00:52:37;9.20;;;8.27;;
11731;SDS011;5922;53.734;10.258;2023-02-19T00:55:19;11.50;;;8.10;;
11731;SDS011;5922;53.734;10.258;2023-02-19T00:57:48;9.20;;;7.90;;
11731;SDS011;5922;53.734;10.258;2023-02-19T01:00:33;11.37;;;7.80;;
11731;SDS011;5922;53.734;10.258;2023-02-19T01:03:14;9.80;;;8.17;;
11731;SDS011;5922;53.734;10.258;2023-02-19T01:05:48;9.30;;;8.20;;
11731;SDS011;5922;53.734;10.258;2023-02-19T01:08:20;12.27;;;8.57;;
11731;SDS011;5922;53.734;10.258;2023-02-19T01:11:05;8.97;;;7.73;;
11731;SDS011;5922;53.734;10.258;2023-02-19T01:13:55;9.50;;;7.50;;
11731;SDS011;5922;53.734;10.258;2023-02-19T01:16:34;10.87;;;7.03;;
11731;SDS011;5922;53.734;10.258;2023-02-19T01:19:01;13.80;;;7.57;;
11731;SDS011;5922;53.734;10.258;2023-02-19T01:21:29;11.43;;;7.70;;
11731;SDS011;5922;53.734;10.258;2023-02-19T01:24:08;10.40;;;7.53;;
11731;SDS011;5922;53.734;10.258;2023-02-19T01:26:43;10.50;;;7.53;;
11731;SDS011;5922;53.734;10.258;2023-02-19T01:29:16;9.73;;;7.90;;
11731;SDS011;5922;53.734;10.258;2023-02-19T01:31:46;7.83;;;6.57;;
11731;SDS011;5922;53.734;10.258;2023-02-19T01:34:16;9.97;;;6.53;;
11731;SDS011;5922;53.734;10.258;2023-02-19T01:36:48;8.03;;;6.27;;
11731;SDS011;5922;53.734;10.258;2023-02-19T01:39:15;11.13;;;6.83;;
11731;SDS011;5922;53.734;10.258;2023-02-19T01:41:44;8.77;;;6.60;;
11731;SDS011;5922;53.734;10.258;2023-02-19T01:46:57;10.43;;;6.10;;
11731;SDS011;5922;53.734;10.258;2023-02-19T01:49:27;10.67;;;6.57;;
11731;SDS011;5922;53.734;10.258;2023-02-19T01:51:58;9.13;;;6.80;;
11731;SDS011;5922;53.734;10.258;2023-02-19T01:54:34;9.17;;;6.33;;
11731;SDS011;5922;53.734;10.258;2023-02-19T01:57:18;8.13;;;5.60;;
11731;SDS011;5922;53.734;10.258;2023-02-19T01:59:52;12.37;;;4.47;;
11731;SDS011;5922;53.734;10.258;2023-02-19T02:02:32;9.00;;;4.10;;
11731;SDS011;5922;53.734;10.258;2023-02-19T02:04:59;8.73;;;3.60;;
11731;SDS011;5922;53.734;10.258;2023-02-19T02:07:29;5.87;;;2.87;;
11731;SDS011;5922;53.734;10.258;2023-02-19T02:10:20;4.50;;;3.43;;
11731;SDS011;5922;53.734;10.258;2023-02-19T02:13:01;9.93;;;3.70;;
11731;SDS011;5922;53.734;10.258;2023-02-19T02:15:34;4.70;;;2.53;;
11731;SDS011;5922;53.734;10.258;2023-02-19T02:18:04;3.67;;;2.00;;
11731;SDS011;5922;53.734;10.258;2023-02-19T02:20:39;3.10;;;1.87;;
11731;SDS011;5922;53.734;10.258;2023-02-19T02:23:09;4.73;;;1.70;;
11731;SDS011;5922;53.734;10.258;2023-02-19T02:28:33;3.87;;;1.60;;
11731;SDS011;5922;53.734;10.258;2023-02-19T02:31:04;5.10;;;1.77;;
11731;SDS011;5922;53.734;10.258;2023-02-19T02:33:39;5.97;;;1.50;;
11731;SDS011;5922;53.734;10.258;2023-02-19T02:36:11;6.47;;;1.50;;
11731;SDS011;5922;53.734;10.258;2023-02-19T02:38:41;3.60;;;1.67;;
11731;SDS011;5922;53.734;10.258;2023-02-19T02:41:10;4.77;;;1.70;;
11731;SDS011;5922;53.734;10.258;2023-02-19T02:43:37;3.23;;;1.70;;
11731;SDS011;5922;53.734;10.258;2023-02-19T02:46:08;3.77;;;1.73;;
11731;SDS011;5922;53.734;10.258;2023-02-19T02:48:39;3.67;;;2.07;;
11731;SDS011;5922;53.734;10.258;2023-02-19T02:51:12;4.43;;;1.93;;
11731;SDS011;5922;53.734;10.258;2023-02-19T02:53:49;2.47;;;1.80;;
11731;SDS011;5922;53.734;10.258;2023-02-19T02:56:35;3.37;;;1.60;;
11731;SDS011;5922;53.734;10.258;2023-02-19T02:59:03;5.33;;;1.70;;
11731;SDS011;5922;53.734;10.258;2023-02-19T03:01:34;8.70;;;1.90;;
11731;SDS011;5922;53.734;10.258;2023-02-19T03:04:26;4.10;;;1.57;;
11731;SDS011;5922;53.734;10.258;2023-02-19T03:06:59;5.40;;;1.73;;
11731;SDS011;5922;53.734;10.258;2023-02-19T03:09:38;4.87;;;1.80;;
11731;SDS011;5922;53.734;10.258;2023-02-19T03:12:14;4.20;;;1.57;;
11731;SDS011;5922;53.734;10.258;2023-02-19T03:15:09;3.20;;;1.60;;
11731;SDS011;5922;53.734;10.258;2023-02-19T03:17:57;3.17;;;1.43;;
11731;SDS011;5922;53.734;10.258;2023-02-19T03:20:43;5.37;;;1.73;;
11731;SDS011;5922;53.734;10.258;2023-02-19T03:23:14;4.53;;;1.80;;
11731;SDS011;5922;53.734;10.258;2023-02-19T03:25:43;3.47;;;1.50;;
11731;SDS011;5922;53.734;10.258;2023-02-19T03:28:28;4.90;;;1.97;;
11731;SDS011;5922;53.734;10.258;2023-02-19T03:31:12;4.60;;;1.33;;
11731;SDS011;5922;53.734;10.258;2023-02-19T03:33:43;3.33;;;1.73;;
11731;SDS011;5922;53.734;10.258;2023-02-19T03:36:12;2.10;;;1.40;;
11731;SDS011;5922;53.734;10.258;2023-02-19T03:38:41;3.67;;;1.47;;
11731;SDS011;5922;53.734;10.258;2023-02-19T03:41:09;3.13;;;1.70;;
11731;SDS011;5922;53.734;10.258;2023-02-19T03:43:37;4.07;;;1.43;;
11731;SDS011;5922;53.734;10.258;2023-02-19T03:46:08;6.07;;;1.83;;
11731;SDS011;5922;53.734;10.258;2023-02-19T03:48:40;5.13;;;1.73;;
11731;SDS011;5922;53.734;10.258;2023-02-19T03:51:17;5.60;;;1.90;;
11731;SDS011;5922;53.734;10.258;2023-02-19T03:53:48;6.93;;;2.10;;
11731;SDS011;5922;53.734;10.258;2023-02-19T03:56:18;4.87;;;1.70;;
11731;SDS011;5922;53.734;10.258;2023-02-19T03:58:49;3.50;;;1.47;;
11731;SDS011;5922;53.734;10.258;2023-02-19T04:01:20;3.47;;;1.30;;
11731;SDS011;5922;53.734;10.258;2023-02-19T04:03:50;3.80;;;1.80;;
11731;SDS011;5922;53.734;10.258;2023-02-19T04:06:21;3.43;;;1.80;;
11731;SDS011;5922;53.734;10.258;2023-02-19T04:08:50;5.63;;;1.60;;
11731;SDS011;5922;53.734;10.258;2023-02-19T04:11:19;4.03;;;1.60;;
11731;SDS011;5922;53.734;10.258;2023-02-19T04:13:48;4.73;;;2.23;;
11731;SDS011;5922;53.734;10.258;2023-02-19T04:16:18;4.97;;;1.80;;
11731;SDS011;5922;53.734;10.258;2023-02-19T04:18:47;4.37;;;1.50;;
11731;SDS011;5922;53.734;10.258;2023-02-19T04:21:22;5.17;;;1.77;;
11731;SDS011;5922;53.734;10.258;2023-02-19T04:23:50;7.07;;;1.93;;
11731;SDS011;5922;53.734;10.258;2023-02-19T04:26:20;4.37;;;1.60;;
11731;SDS011;5922;53.734;10.258;2023-02-19T04:28:51;4.87;;;1.53;;
11731;SDS011;5922;53.734;10.258;2023-02-19T04:31:18;4.57;;;1.67;;
11731;SDS011;5922;53.734;10.258;2023-02-19T04:33:45;4.93;;;1.63;;
11731;SDS011;5922;53.734;10.258;2023-02-19T04:36:12;3.10;;;1.43;;
11731;SDS011;5922;53.734;10.258;2023-02-19T04:38:43;6.93;;;1.70;;
11731;SDS011;5922;53.734;10.258;2023-02-19T04:41:11;3.97;;;1.60;;
11731;SDS011;5922;53.734;10.258;2023-02-19T04:43:38;3.57;;;1.50;;
11731;SDS011;5922;53.734;10.258;2023-02-19T04:46:05;3.00;;;1.30;;
11731;SDS011;5922;53.734;10.258;2023-02-19T04:48:33;3.80;;;1.50;;
11731;SDS011;5922;53.734;10.258;2023-02-19T04:51:03;4.63;;;1.80;;
11731;SDS011;5922;53.734;10.258;2023-02-19T04:53:30;3.30;;;1.43;;
11731;SDS011;5922;53.734;10.258;2023-02-19T04:56:05;2.80;;;1.70;;
11731;SDS011;5922;53.734;10.258;2023-02-19T04:58:32;4.70;;;1.53;;
11731;SDS011;5922;53.734;10.258;2023-02-19T05:01:00;3.90;;;1.87;;
11731;SDS011;5922;53.734;10.258;2023-02-19T05:03:27;3.87;;;1.60;;
11731;SDS011;5922;53.734;10.258;2023-02-19T05:05:55;4.50;;;1.57;;
11731;SDS011;5922;53.734;10.258;2023-02-19T05:08:22;2.57;;;1.70;;
11731;SDS011;5922;53.734;10.258;2023-02-19T05:10:55;5.50;;;1.83;;
11731;SDS011;5922;53.734;10.258;2023-02-19T05:13:24;5.97;;;1.87;;
11731;SDS011;5922;53.734;10.258;2023-02-19T05:15:55;2.77;;;1.60;;
11731;SDS011;5922;53.734;10.258;2023-02-19T05:18:23;6.63;;;1.77;;
11731;SDS011;5922;53.734;10.258;2023-02-19T05:20:50;10.23;;;1.67;;
11731;SDS011;5922;53.734;10.258;2023-02-19T05:23:18;2.27;;;1.23;;
11731;SDS011;5922;53.734;10.258;2023-02-19T05:25:46;3.83;;;1.80;;
11731;SDS011;5922;53.734;10.258;2023-02-19T05:28:13;4.23;;;1.43;;
11731;SDS011;5922;53.734;10.258;2023-02-19T05:30:45;7.00;;;1.60;;
11731;SDS011;5922;53.734;10.258;2023-02-19T05:33:12;5.30;;;1.43;;
11731;SDS011;5922;53.734;10.258;2023-02-19T05:35:40;3.63;;;1.37;;
11731;SDS011;5922;53.734;10.258;2023-02-19T05:38:08;6.77;;;1.70;;
11731;SDS011;5922;53.734;10.258;2023-02-19T05:40:42;3.60;;;1.77;;
11731;SDS011;5922;53.734;10.258;2023-02-19T05:43:12;8.33;;;1.60;;
11731;SDS011;5922;53.734;10.258;2023-02-19T05:45:57;2.70;;;1.20;;
11731;SDS011;5922;53.734;10.258;2023-02-19T05:48:29;3.53;;;1.63;;
11731;SDS011;5922;53.734;10.258;2023-02-19T05:51:02;3.80;;;1.47;;
11731;SDS011;5922;53.734;10.258;2023-02-19T05:53:30;3.17;;;1.40;;
11731;SDS011;5922;53.734;10.258;2023-02-19T05:56:16;4.50;;;1.70;;
11731;SDS011;5922;53.734;10.258;2023-02-19T05:58:47;8.43;;;2.00;;
11731;SDS011;5922;53.734;10.258;2023-02-19T06:01:19;5.60;;;1.60;;
11731;SDS011;5922;53.734;10.258;2023-02-19T06:03:46;6.93;;;2.00;;
11731;SDS011;5922;53.734;10.258;2023-02-19T06:06:14;5.53;;;1.60;;
11731;SDS011;5922;53.734;10.258;2023-02-19T06:08:41;2.27;;;1.13;;
11731;SDS011;5922;53.734;10.258;2023-02-19T06:11:08;7.43;;;1.60;;
11731;SDS011;5922;53.734;10.258;2023-02-19T06:13:36;2.93;;;1.27;;
11731;SDS011;5922;53.734;10.258;2023-02-19T06:16:03;4.60;;;1.53;;
11731;SDS011;5922;53.734;10.258;2023-02-19T06:18:32;4.83;;;2.07;;
11731;SDS011;5922;53.734;10.258;2023-02-19T06:20:59;3.97;;;1.60;;
11731;SDS011;5922;53.734;10.258;2023-02-19T06:23:27;8.77;;;1.90;;
11731;SDS011;5922;53.734;10.258;2023-02-19T06:26:03;6.40;;;2.03;;
11731;SDS011;5922;53.734;10.258;2023-02-19T06:28:30;7.60;;;2.03;;
11731;SDS011;5922;53.734;10.258;2023-02-19T06:30:58;8.30;;;2.20;;
11731;SDS011;5922;53.734;10.258;2023-02-19T06:33:25;4.50;;;1.70;;
11731;SDS011;5922;53.734;10.258;2023-02-19T06:35:56;5.50;;;2.00;;
11731;SDS011;5922;53.734;10.258;2023-02-19T06:38:27;4.90;;;1.30;;
11731;SDS011;5922;53.734;10.258;2023-02-19T06:41:06;4.87;;;1.77;;
11731;SDS011;5922;53.734;10.258;2023-02-19T06:43:34;5.70;;;1.77;;
11731;SDS011;5922;53.734;10.258;2023-02-19T06:46:01;6.57;;;1.83;;
11731;SDS011;5922;53.734;10.258;2023-02-19T06:48:32;4.10;;;1.70;;
11731;SDS011;5922;53.734;10.258;2023-02-19T06:51:04;8.00;;;1.70;;
11731;SDS011;5922;53.734;10.258;2023-02-19T06:53:31;4.40;;;1.73;;
11731;SDS011;5922;53.734;10.258;2023-02-19T06:55:59;4.23;;;1.50;;
11731;SDS011;5922;53.734;10.258;2023-02-19T06:58:27;3.80;;;1.60;;
11731;SDS011;5922;53.734;10.258;2023-02-19T07:01:02;6.40;;;2.10;;
11731;SDS011;5922;53.734;10.258;2023-02-19T07:03:30;6.17;;;2.03;;
11731;SDS011;5922;53.734;10.258;2023-02-19T07:06:00;4.73;;;1.87;;
11731;SDS011;5922;53.734;10.258;2023-02-19T07:08:29;7.00;;;1.73;;
11731;SDS011;5922;53.734;10.258;2023-02-19T07:11:02;5.40;;;2.40;;
11731;SDS011;5922;53.734;10.258;2023-02-19T07:13:30;5.63;;;1.77;;
11731;SDS011;5922;53.734;10.258;2023-02-19T07:16:01;6.53;;;1.73;;
11731;SDS011;5922;53.734;10.258;2023-02-19T07:18:35;4.63;;;1.53;;
11731;SDS011;5922;53.734;10.258;2023-02-19T07:21:11;8.43;;;3.40;;
11731;SDS011;5922;53.734;10.258;2023-02-19T07:23:52;9.73;;;3.10;;
11731;SDS011;5922;53.734;10.258;2023-02-19T07:26:33;4.70;;;2.07;;
11731;SDS011;5922;53.734;10.258;2023-02-19T07:29:04;9.17;;;3.03;;
11731;SDS011;5922;53.734;10.258;2023-02-19T07:31:31;4.13;;;2.30;;
11731;SDS011;5922;53.734;10.258;2023-02-19T07:34:03;7.13;;;2.60;;
11731;SDS011;5922;53.734;10.258;2023-02-19T07:36:34;5.63;;;3.30;;
11731;SDS011;5922;53.734;10.258;2023-02-19T07:39:11;4.53;;;2.33;;
11731;SDS011;5922;53.734;10.258;2023-02-19T07:44:49;5.57;;;2.57;;
11731;SDS011;5922;53.734;10.258;2023-02-19T07:47:23;5.47;;;2.20;;
11731;SDS011;5922;53.734;10.258;2023-02-19T07:49:57;5.27;;;1.80;;
11731;SDS011;5922;53.734;10.258;2023-02-19T07:52:38;6.10;;;1.80;;
11731;SDS011;5922;53.734;10.258;2023-02-19T07:55:15;4.87;;;2.13;;
11731;SDS011;5922;53.734;10.258;2023-02-19T07:57:57;6.70;;;2.47;;
11731;SDS011;5922;53.734;10.258;2023-02-19T08:00:33;9.47;;;2.50;;
11731;SDS011;5922;53.734;10.258;2023-02-19T08:03:08;6.40;;;2.70;;
11731;SDS011;5922;53.734;10.258;2023-02-19T08:05:38;6.53;;;1.90;;
11731;SDS011;5922;53.734;10.258;2023-02-19T08:08:15;7.63;;;2.93;;
11731;SDS011;5922;53.734;10.258;2023-02-19T08:10:53;8.50;;;3.57;;
11731;SDS011;5922;53.734;10.258;2023-02-19T08:13:58;6.53;;;2.30;;
11731;SDS011;5922;53.734;10.258;2023-02-19T08:16:48;4.57;;;2.13;;
11731;SDS011;5922;53.734;10.258;2023-02-19T08:19:32;11.03;;;3.23;;
11731;SDS011;5922;53.734;10.258;2023-02-19T08:22:02;9.70;;;2.83;;
11731;SDS011;5922;53.734;10.258;2023-02-19T08:24:29;12.03;;;3.23;;
11731;SDS011;5922;53.734;10.258;2023-02-19T08:27:08;6.83;;;2.20;;
11731;SDS011;5922;53.734;10.258;2023-02-19T08:29:43;8.97;;;2.33;;
11731;SDS011;5922;53.734;10.258;2023-02-19T08:32:13;12.60;;;2.90;;
11731;SDS011;5922;53.734;10.258;2023-02-19T08:34:45;6.27;;;2.17;;
11731;SDS011;5922;53.734;10.258;2023-02-19T08:37:17;7.43;;;2.50;;
11731;SDS011;5922;53.734;10.258;2023-02-19T08:39:50;5.17;;;2.23;;
11731;SDS011;5922;53.734;10.258;2023-02-19T08:42:22;4.87;;;1.90;;
11731;SDS011;5922;53.734;10.258;2023-02-19T08:44:51;7.80;;;2.10;;
11731;SDS011;5922;53.734;10.258;2023-02-19T08:47:21;7.20;;;2.23;;
11731;SDS011;5922;53.734;10.258;2023-02-19T08:49:53;6.13;;;2.33;;
11731;SDS011;5922;53.734;10.258;2023-02-19T08:52:22;7.10;;;2.07;;
11731;SDS011;5922;53.734;10.258;2023-02-19T08:54:56;5.97;;;2.20;;
11731;SDS011;5922;53.734;10.258;2023-02-19T08:57:25;7.63;;;2.23;;
11731;SDS011;5922;53.734;10.258;2023-02-19T08:59:55;11.07;;;2.97;;
11731;SDS011;5922;53.734;10.258;2023-02-19T09:02:23;6.63;;;1.90;;
11731;SDS011;5922;53.734;10.258;2023-02-19T09:04:50;7.03;;;2.00;;
11731;SDS011;5922;53.734;10.258;2023-02-19T09:07:18;4.93;;;2.07;;
11731;SDS011;5922;53.734;10.258;2023-02-19T09:09:47;7.07;;;1.80;;
11731;SDS011;5922;53.734;10.258;2023-02-19T09:12:14;9.93;;;1.97;;
11731;SDS011;5922;53.734;10.258;2023-02-19T09:14:42;8.63;;;2.20;;
11731;SDS011;5922;53.734;10.258;2023-02-19T09:17:10;7.07;;;2.40;;
11731;SDS011;5922;53.734;10.258;2023-02-19T09:19:38;6.47;;;2.10;;
11731;SDS011;5922;53.734;10.258;2023-02-19T09:22:05;5.80;;;1.37;;
11731;SDS011;5922;53.734;10.258;2023-02-19T09:24:33;3.10;;;1.70;;
11731;SDS011;5922;53.734;10.258;2023-02-19T09:27:00;7.60;;;2.37;;
11731;SDS011;5922;53.734;10.258;2023-02-19T09:29:27;7.17;;;1.60;;
11731;SDS011;5922;53.734;10.258;2023-02-19T09:31:57;6.67;;;1.80;;
11731;SDS011;5922;53.734;10.258;2023-02-19T09:34:24;6.33;;;2.07;;
11731;SDS011;5922;53.734;10.258;2023-02-19T09:36:54;6.40;;;1.97;;
11731;SDS011;5922;53.734;10.258;2023-02-19T09:39:22;7.07;;;1.80;;
11731;SDS011;5922;53.734;10.258;2023-02-19T09:41:49;6.93;;;1.97;;
11731;SDS011;5922;53.734;10.258;2023-02-19T09:44:20;7.03;;;1.83;;
11731;SDS011;5922;53.734;10.258;2023-02-19T09:46:50;5.23;;;1.50;;
11731;SDS011;5922;53.734;10.258;2023-02-19T09:49:21;7.57;;;1.80;;
11731;SDS011;5922;53.734;10.258;2023-02-19T09:51:51;5.27;;;2.20;;
11731;SDS011;5922;53.734;10.258;2023-02-19T09:54:30;6.17;;;1.70;;
11731;SDS011;5922;53.734;10.258;2023-02-19T09:57:00;12.97;;;1.70;;
11731;SDS011;5922;53.734;10.258;2023-02-19T09:59:30;6.97;;;1.60;;
11731;SDS011;5922;53.734;10.258;2023-02-19T10:02:00;9.27;;;1.80;;
11731;SDS011;5922;53.734;10.258;2023-02-19T10:04:32;6.40;;;1.50;;
11731;SDS011;5922;53.734;10.258;2023-02-19T10:07:11;6.30;;;1.70;;
11731;SDS011;5922;53.734;10.258;2023-02-19T10:09:39;6.70;;;1.50;;
11731;SDS011;5922;53.734;10.258;2023-02-19T10:12:11;6.47;;;1.60;;
11731;SDS011;5922;53.734;10.258;2023-02-19T10:14:43;7.77;;;1.57;;
11731;SDS011;5922;53.734;10.258;2023-02-19T10:17:12;7.97;;;2.17;;
11731;SDS011;5922;53.734;10.258;2023-02-19T10:19:44;5.77;;;1.90;;
11731;SDS011;5922;53.734;10.258;2023-02-19T10:22:12;6.13;;;1.70;;
11731;SDS011;5922;53.734;10.258;2023-02-19T10:24:39;7.77;;;1.73;;
11731;SDS011;5922;53.734;10.258;2023-02-19T10:27:10;4.67;;;1.43;;
11731;SDS011;5922;53.734;10.258;2023-02-19T10:29:37;8.70;;;1.97;;
11731;SDS011;5922;53.734;10.258;2023-02-19T10:32:11;5.23;;;1.43;;
11731;SDS011;5922;53.734;10.258;2023-02-19T10:34:38;3.07;;;1.23;;
11731;SDS011;5922;53.734;10.258;2023-02-19T10:37:26;7.20;;;1.60;;
11731;SDS011;5922;53.734;10.258;2023-02-19T10:39:54;7.73;;;1.60;;
11731;SDS011;5922;53.734;10.258;2023-02-19T10:42:22;6.63;;;1.57;;
11731;SDS011;5922;53.734;10.258;2023-02-19T10:44:51;5.67;;;1.40;;
11731;SDS011;5922;53.734;10.258;2023-02-19T10:47:22;8.13;;;1.50;;
11731;SDS011;5922;53.734;10.258;2023-02-19T10:49:50;3.10;;;1.27;;
11731;SDS011;5922;53.734;10.258;2023-02-19T10:52:21;5.67;;;1.30;;
11731;SDS011;5922;53.734;10.258;2023-02-19T10:54:51;5.53;;;1.50;;
11731;SDS011;5922;53.734;10.258;2023-02-19T10:57:26;6.70;;;1.40;;
11731;SDS011;5922;53.734;10.258;2023-02-19T10:59:58;4.23;;;1.47;;
11731;SDS011;5922;53.734;10.258;2023-02-19T11:02:26;5.87;;;1.43;;
11731;SDS011;5922;53.734;10.258;2023-02-19T11:05:06;6.10;;;1.77;;
11731;SDS011;5922;53.734;10.258;2023-02-19T11:07:45;4.57;;;1.20;;
11731;SDS011;5922;53.734;10.258;2023-02-19T11:10:24;4.53;;;1.57;;
11731;SDS011;5922;53.734;10.258;2023-02-19T11:12:53;4.97;;;1.60;;
11731;SDS011;5922;53.734;10.258;2023-02-19T11:15:22;3.73;;;1.30;;
11731;SDS011;5922;53.734;10.258;2023-02-19T11:17:55;3.07;;;1.30;;
11731;SDS011;5922;53.734;10.258;2023-02-19T11:20:23;7.37;;;1.73;;
11731;SDS011;5922;53.734;10.258;2023-02-19T11:22:56;6.67;;;1.30;;
11731;SDS011;5922;53.734;10.258;2023-02-19T11:25:26;7.70;;;2.07;;
11731;SDS011;5922;53.734;10.258;2023-02-19T11:27:55;5.37;;;2.60;;
11731;SDS011;5922;53.734;10.258;2023-02-19T11:30:30;4.57;;;1.30;;
11731;SDS011;5922;53.734;10.258;2023-02-19T11:35:44;5.20;;;1.10;;
11731;SDS011;5922;53.734;10.258;2023-02-19T11:38:14;8.53;;;2.07;;
11731;SDS011;5922;53.734;10.258;2023-02-19T11:40:47;4.77;;;1.43;;
11731;SDS011;5922;53.734;10.258;2023-02-19T11:43:27;5.23;;;1.40;;
11731;SDS011;5922;53.734;10.258;2023-02-19T11:45:58;3.90;;;1.13;;
11731;SDS011;5922;53.734;10.258;2023-02-19T11:48:30;5.40;;;1.03;;
11731;SDS011;5922;53.734;10.258;2023-02-19T11:51:02;3.53;;;0.90;;
11731;SDS011;5922;53.734;10.258;2023-02-19T11:53:35;3.83;;;1.20;;
11731;SDS011;5922;53.734;10.258;2023-02-19T11:56:13;3.83;;;1.50;;
11731;SDS011;5922;53.734;10.258;2023-02-19T11:58:51;6.60;;;1.57;;
11731;SDS011;5922;53.734;10.258;2023-02-19T12:01:22;5.80;;;1.30;;
11731;SDS011;5922;53.734;10.258;2023-02-19T12:03:56;4.17;;;1.10;;
11731;SDS011;5922;53.734;10.258;2023-02-19T12:06:27;6.27;;;1.40;;
11731;SDS011;5922;53.734;10.258;2023-02-19T12:09:05;4.67;;;1.10;;
11731;SDS011;5922;53.734;10.258;2023-02-19T12:11:43;6.90;;;1.80;;
11731;SDS011;5922;53.734;10.258;2023-02-19T12:14:29;3.87;;;1.30;;
11731;SDS011;5922;53.734;10.258;2023-02-19T12:17:03;2.80;;;1.30;;
11731;SDS011;5922;53.734;10.258;2023-02-19T12:19:39;5.53;;;1.20;;
11731;SDS011;5922;53.734;10.258;2023-02-19T12:22:13;4.90;;;1.30;;
11731;SDS011;5922;53.734;10.258;2023-02-19T12:27:33;3.50;;;1.30;;
11731;SDS011;5922;53.734;10.258;2023-02-19T12:30:22;3.07;;;1.60;;
11731;SDS011;5922;53.734;10.258;2023-02-19T12:33:00;2.60;;;1.20;;
11731;SDS011;5922;53.734;10.258;2023-02-19T12:35:37;4.87;;;1.53;;
11731;SDS011;5922;53.734;10.258;2023-02-19T12:38:15;4.37;;;1.50;;
11731;SDS011;5922;53.734;10.258;2023-02-19T12:40:54;4.73;;;1.93;;
11731;SDS011;5922;53.734;10.258;2023-02-19T12:43:26;4.23;;;2.07;;
11731;SDS011;5922;53.734;10.258;2023-02-19T12:45:55;4.83;;;1.37;;
11731;SDS011;5922;53.734;10.258;2023-02-19T12:48:27;4.20;;;1.03;;
11731;SDS011;5922;53.734;10.258;2023-02-19T12:50:55;8.30;;;2.70;;
11731;SDS011;5922;53.734;10.258;2023-02-19T12:57:08;7.37;;;2.10;;
11731;SDS011;5922;53.734;10.258;2023-02-19T12:59:32;3.97;;;1.77;;
11731;SDS011;5922;53.734;10.258;2023-02-19T13:02:12;5.70;;;1.30;;
11731;SDS011;5922;53.734;10.258;2023-02-19T13:08:09;4.47;;;1.20;;
11731;SDS011;5922;53.734;10.258;2023-02-19T13:10:42;5.10;;;1.33;;
11731;SDS011;5922;53.734;10.258;2023-02-19T13:15:57;3.43;;;1.20;;
11731;SDS011;5922;53.734;10.258;2023-02-19T13:18:38;2.77;;;1.20;;
11731;SDS011;5922;53.734;10.258;2023-02-19T13:21:45;3.47;;;1.00;;
11731;SDS011;5922;53.734;10.258;2023-02-19T13:24:12;2.80;;;1.20;;
11731;SDS011;5922;53.734;10.258;2023-02-19T13:26:59;4.80;;;1.43;;
11731;SDS011;5922;53.734;10.258;2023-02-19T13:29:45;3.23;;;1.00;;
11731;SDS011;5922;53.734;10.258;2023-02-19T13:32:24;4.13;;;2.00;;
11731;SDS011;5922;53.734;10.258;2023-02-19T13:34:58;5.77;;;1.23;;
11731;SDS011;5922;53.734;10.258;2023-02-19T13:37:29;3.17;;;1.23;;
11731;SDS011;5922;53.734;10.258;2023-02-19T13:40:05;5.50;;;1.27;;
11731;SDS011;5922;53.734;10.258;2023-02-19T13:42:56;1.60;;;1.00;;
11731;SDS011;5922;53.734;10.258;2023-02-19T13:45:25;2.57;;;1.03;;
11731;SDS011;5922;53.734;10.258;2023-02-19T13:48:02;3.33;;;1.90;;
11731;SDS011;5922;53.734;10.258;2023-02-19T13:50:41;3.73;;;1.40;;
11731;SDS011;5922;53.734;10.258;2023-02-19T13:55:55;7.70;;;1.70;;
11731;SDS011;5922;53.734;10.258;2023-02-19T14:04:07;3.83;;;1.20;;
11731;SDS011;5922;53.734;10.258;2023-02-19T14:12:16;2.87;;;1.30;;
11731;SDS011;5922;53.734;10.258;2023-02-19T14:14:44;3.60;;;1.50;;
11731;SDS011;5922;53.734;10.258;2023-02-19T14:17:24;6.13;;;1.47;;
11731;SDS011;5922;53.734;10.258;2023-02-19T14:19:57;5.93;;;1.50;;
11731;SDS011;5922;53.734;10.258;2023-02-19T14:25:17;2.90;;;1.20;;
11731;SDS011;5922;53.734;10.258;2023-02-19T14:27:47;3.43;;;1.63;;
11731;SDS011;5922;53.734;10.258;2023-02-19T14:30:14;5.40;;;1.70;;
11731;SDS011;5922;53.734;10.258;2023-02-19T14:32:42;3.60;;;1.40;;
11731;SDS011;5922;53.734;10.258;2023-02-19T14:35:17;4.90;;;1.40;;
11731;SDS011;5922;53.734;10.258;2023-02-19T14:37:45;2.17;;;1.40;;
11731;SDS011;5922;53.734;10.258;2023-02-19T14:40:16;7.23;;;2.37;;
11731;SDS011;5922;53.734;10.258;2023-02-19T14:42:44;2.77;;;1.10;;
11731;SDS011;5922;53.734;10.258;2023-02-19T14:45:12;2.57;;;1.10;;
11731;SDS011;5922;53.734;10.258;2023-02-19T14:47:41;4.03;;;1.07;;
11731;SDS011;5922;53.734;10.258;2023-02-19T14:50:11;3.07;;;1.50;;
11731;SDS011;5922;53.734;10.258;2023-02-19T14:52:42;3.07;;;1.23;;
11731;SDS011;5922;53.734;10.258;2023-02-19T14:55:18;4.47;;;2.00;;
11731;SDS011;5922;53.734;10.258;2023-02-19T14:57:46;3.97;;;1.90;;
11731;SDS011;5922;53.734;10.258;2023-02-19T15:00:21;5.30;;;2.30;;
11731;SDS011;5922;53.734;10.258;2023-02-19T15:02:49;5.50;;;2.27;;
11731;SDS011;5922;53.734;10.258;2023-02-19T15:05:17;5.33;;;2.73;;
11731;SDS011;5922;53.734;10.258;2023-02-19T15:07:49;5.80;;;2.33;;
11731;SDS011;5922;53.734;10.258;2023-02-19T15:10:16;4.83;;;3.50;;
11731;SDS011;5922;53.734;10.258;2023-02-19T15:12:44;6.93;;;3.73;;
11731;SDS011;5922;53.734;10.258;2023-02-19T15:15:15;6.17;;;3.67;;
11731;SDS011;5922;53.734;10.258;2023-02-19T15:17:43;6.53;;;3.50;;
11731;SDS011;5922;53.734;10.258;2023-02-19T15:20:11;8.30;;;3.00;;
11731;SDS011;5922;53.734;10.258;2023-02-19T15:22:42;4.23;;;2.67;;
11731;SDS011;5922;53.734;10.258;2023-02-19T15:25:13;4.20;;;2.30;;
11731;SDS011;5922;53.734;10.258;2023-02-19T15:27:42;9.27;;;2.70;;
11731;SDS011;5922;53.734;10.258;2023-02-19T15:33:19;5.20;;;2.07;;
11731;SDS011;5922;53.734;10.258;2023-02-19T15:35:52;5.23;;;2.50;;
11731;SDS011;5922;53.734;10.258;2023-02-19T15:38:21;8.53;;;2.10;;
11731;SDS011;5922;53.734;10.258;2023-02-19T15:40:50;8.07;;;1.87;;
11731;SDS011;5922;53.734;10.258;2023-02-19T15:43:22;3.83;;;1.50;;
11731;SDS011;5922;53.734;10.258;2023-02-19T15:45:58;5.50;;;1.57;;
11731;SDS011;5922;53.734;10.258;2023-02-19T15:48:34;7.07;;;1.83;;
11731;SDS011;5922;53.734;10.258;2023-02-19T15:51:08;6.40;;;1.70;;
11731;SDS011;5922;53.734;10.258;2023-02-19T15:54:04;4.70;;;2.00;;
11731;SDS011;5922;53.734;10.258;2023-02-19T15:59:30;4.03;;;1.40;;
11731;SDS011;5922;53.734;10.258;2023-02-19T16:02:09;5.03;;;2.40;;
11731;SDS011;5922;53.734;10.258;2023-02-19T16:04:54;3.43;;;1.60;;